createdAt,value
2023-03-31T00:01:46.835Z,9.62
2023-03-31T00:04:53.306Z,9.64
2023-03-31T00:08:03.857Z,9.64
2023-03-31T00:11:08.095Z,9.63
2023-03-31T00:14:11.992Z,9.61
2023-03-31T00:17:15.633Z,9.58
2023-03-31T00:20:18.895Z,9.57
2023-03-31T00:23:27.769Z,9.57
2023-03-31T00:26:31.139Z,9.56
2023-03-31T00:29:35.921Z,9.55
2023-03-31T00:32:38.954Z,9.54
2023-03-31T00:35:41.888Z,9.54
2023-03-31T00:38:46.450Z,9.53
2023-03-31T00:41:49.373Z,9.54
2023-03-31T00:45:31.468Z,9.51
2023-03-31T00:48:37.795Z,9.49
2023-03-31T00:51:41.078Z,9.50
2023-03-31T00:54:48.194Z,9.49
2023-03-31T00:57:53.870Z,9.49
2023-03-31T01:00:58.433Z,9.49
2023-03-31T01:04:03.617Z,9.50
2023-03-31T01:07:30.551Z,9.49
2023-03-31T01:10:41.642Z,9.49
2023-03-31T01:13:46.093Z,9.48
2023-03-31T01:16:49.024Z,9.47
2023-03-31T01:19:56.206Z,9.49
2023-03-31T01:23:38.351Z,9.51
2023-03-31T01:26:56.865Z,9.54
2023-03-31T01:30:21.691Z,9.54
2023-03-31T01:33:40.207Z,9.54
2023-03-31T01:37:02.017Z,9.53
2023-03-31T01:40:26.298Z,9.55
2023-03-31T01:44:00.185Z,9.56
2023-03-31T01:47:22.895Z,9.55
2023-03-31T01:50:35.527Z,9.55
2023-03-31T01:54:02.116Z,9.55
2023-03-31T01:57:23.426Z,9.55
2023-03-31T02:00:34.813Z,9.51
2023-03-31T02:03:45.558Z,9.49
2023-03-31T02:06:56.777Z,9.46
2023-03-31T02:10:04.699Z,9.43
2023-03-31T02:13:09.577Z,9.42
2023-03-31T02:16:19.120Z,9.39
2023-03-31T02:19:23.482Z,9.35
2023-03-31T02:22:31.469Z,9.33
2023-03-31T02:25:41.447Z,9.31
2023-03-31T02:28:44.718Z,9.26
2023-03-31T02:31:56.391Z,9.23
2023-03-31T02:35:01.430Z,9.21
2023-03-31T02:38:06.896Z,9.18
2023-03-31T02:41:10.251Z,9.16
2023-03-31T02:44:13.063Z,9.12
2023-03-31T02:47:19.036Z,9.08
2023-03-31T02:50:32.055Z,9.08
2023-03-31T02:54:06.336Z,9.09
2023-03-31T02:57:27.337Z,9.08
2023-03-31T03:00:39.426Z,9.09
2023-03-31T03:03:44.698Z,9.07
2023-03-31T03:07:03.736Z,9.05
2023-03-31T03:10:30.637Z,9.02
2023-03-31T03:13:47.355Z,9.04
2023-03-31T03:16:58.146Z,9.03
2023-03-31T03:20:08.008Z,8.99
2023-03-31T03:23:10.840Z,8.97
2023-03-31T03:26:13.590Z,8.93
2023-03-31T03:29:16.551Z,8.91
2023-03-31T03:32:19.372Z,8.88
2023-03-31T03:35:22.124Z,8.88
2023-03-31T03:38:24.919Z,8.88
2023-03-31T03:45:35.416Z,8.90
2023-03-31T03:48:38.219Z,8.91
2023-03-31T03:51:40.960Z,8.92
2023-03-31T03:54:43.739Z,8.92
2023-03-31T03:57:46.491Z,8.92
2023-03-31T04:00:49.327Z,8.92
2023-03-31T04:03:52.108Z,8.92
2023-03-31T04:06:54.893Z,8.91
2023-03-31T04:09:57.620Z,8.89
2023-03-31T04:13:00.386Z,8.93
2023-03-31T04:16:03.154Z,8.93
2023-03-31T04:19:06.963Z,8.92
2023-03-31T04:22:11.856Z,8.91
2023-03-31T04:25:17.769Z,8.91
2023-03-31T04:28:20.601Z,8.91
2023-03-31T04:31:25.650Z,8.90
2023-03-31T04:34:35.472Z,8.89
2023-03-31T04:37:38.882Z,8.89
2023-03-31T04:40:41.660Z,8.90
2023-03-31T04:43:44.694Z,8.91
2023-03-31T04:46:47.433Z,8.92
2023-03-31T04:49:50.308Z,8.91
2023-03-31T04:52:53.054Z,8.90
2023-03-31T04:55:56.158Z,8.90
2023-03-31T04:58:58.968Z,8.90
2023-03-31T05:02:01.713Z,8.90
2023-03-31T05:05:04.929Z,8.91
2023-03-31T05:08:07.732Z,8.94
2023-03-31T05:11:11.289Z,8.94
2023-03-31T05:14:19.085Z,8.94
2023-03-31T05:17:22.367Z,8.97
2023-03-31T05:20:25.315Z,8.96
2023-03-31T05:23:28.016Z,8.94
2023-03-31T05:26:31.136Z,8.93
2023-03-31T05:29:33.987Z,8.92
2023-03-31T05:32:36.828Z,8.93
2023-03-31T05:35:39.614Z,8.93
2023-03-31T05:38:42.847Z,8.93
2023-03-31T05:41:45.662Z,8.96
2023-03-31T05:44:48.501Z,9.02
2023-03-31T05:47:51.585Z,9.09
2023-03-31T05:51:01.946Z,9.10
2023-03-31T05:54:06.441Z,9.11
2023-03-31T05:57:10.152Z,9.12
2023-03-31T06:00:13.982Z,9.13
2023-03-31T06:03:16.964Z,9.14
2023-03-31T06:06:20.414Z,9.15
2023-03-31T06:09:23.238Z,9.18
2023-03-31T06:12:26.079Z,9.20
2023-03-31T06:15:28.840Z,9.23
2023-03-31T06:18:34.065Z,9.27
2023-03-31T06:21:36.815Z,9.31
2023-03-31T06:24:39.550Z,9.35
2023-03-31T06:27:42.523Z,9.37
2023-03-31T06:30:45.609Z,9.34
2023-03-31T06:33:49.052Z,9.33
2023-03-31T06:36:52.250Z,9.35
2023-03-31T06:39:55.646Z,9.35
2023-03-31T06:42:58.419Z,9.37
2023-03-31T06:46:01.379Z,9.38
2023-03-31T06:49:04.528Z,9.39
2023-03-31T06:52:07.372Z,9.38
2023-03-31T06:55:10.537Z,9.39
2023-03-31T06:58:13.393Z,9.42
2023-03-31T07:01:16.229Z,9.42
2023-03-31T07:04:19.055Z,9.48
2023-03-31T07:07:21.931Z,9.55
2023-03-31T07:10:26.609Z,9.57
2023-03-31T07:13:29.865Z,9.60
2023-03-31T07:16:33.005Z,9.62
2023-03-31T07:19:38.007Z,9.68
2023-03-31T07:22:45.924Z,9.72
2023-03-31T07:25:49.040Z,9.72
2023-03-31T07:28:52.037Z,9.77
2023-03-31T07:31:55.129Z,9.85
2023-03-31T07:34:57.969Z,9.92
2023-03-31T07:38:01.043Z,9.96
2023-03-31T07:41:08.912Z,10.01
2023-03-31T07:44:13.200Z,10.07
2023-03-31T07:47:15.958Z,10.12
2023-03-31T07:50:19.255Z,10.15
2023-03-31T07:53:22.672Z,10.17
2023-03-31T07:56:26.145Z,10.23
2023-03-31T07:59:30.411Z,10.33
2023-03-31T08:02:33.695Z,10.36
2023-03-31T08:05:36.836Z,10.42
2023-03-31T08:08:43.258Z,10.53
2023-03-31T08:11:46.963Z,10.63
2023-03-31T08:14:50.984Z,10.76
2023-03-31T08:17:53.854Z,10.89
2023-03-31T08:20:56.877Z,10.98
2023-03-31T08:23:59.749Z,11.09
2023-03-31T08:27:02.726Z,11.16
2023-03-31T08:30:08.491Z,11.27
2023-03-31T08:33:12.459Z,11.37
2023-03-31T08:36:15.711Z,11.46
2023-03-31T08:39:18.819Z,11.54
2023-03-31T08:42:43.785Z,11.60
2023-03-31T08:45:48.122Z,11.68
2023-03-31T08:48:59.638Z,11.78
2023-03-31T08:52:07.774Z,11.87
2023-03-31T08:55:25.643Z,11.98
2023-03-31T08:58:45.007Z,12.13
2023-03-31T09:01:56.865Z,12.20
2023-03-31T09:05:14.958Z,12.29
2023-03-31T09:08:41.348Z,12.33
2023-03-31T09:11:51.403Z,12.44
2023-03-31T09:14:54.214Z,12.55
2023-03-31T09:18:03.857Z,12.64
2023-03-31T09:21:21.402Z,12.76
2023-03-31T09:24:34.418Z,12.92
2023-03-31T09:27:41.468Z,13.05
2023-03-31T09:30:44.494Z,13.15
2023-03-31T09:33:48.413Z,13.21
2023-03-31T09:36:52.577Z,13.21
2023-03-31T09:39:55.380Z,13.23
2023-03-31T09:43:01.179Z,13.27
2023-03-31T09:46:15.380Z,13.33
2023-03-31T09:49:21.764Z,13.46
2023-03-31T09:52:30.321Z,13.51
2023-03-31T09:55:48.123Z,13.56
2023-03-31T09:58:50.900Z,13.63
2023-03-31T10:01:58.928Z,13.69
2023-03-31T10:05:04.521Z,13.77
2023-03-31T10:08:16.949Z,13.82
2023-03-31T10:11:20.442Z,13.83
2023-03-31T10:14:33.845Z,13.82
2023-03-31T10:17:54.962Z,13.82
2023-03-31T10:20:58.411Z,13.84
2023-03-31T10:24:02.801Z,13.93
2023-03-31T10:27:13.966Z,14.06
2023-03-31T10:30:24.043Z,14.23
2023-03-31T10:33:29.573Z,14.49
2023-03-31T10:36:32.867Z,14.66
2023-03-31T10:39:36.691Z,14.76
2023-03-31T10:42:39.519Z,14.83
2023-03-31T10:45:51.378Z,14.93
2023-03-31T10:48:54.084Z,14.91
2023-03-31T10:51:59.389Z,14.91
2023-03-31T10:55:02.250Z,15.01
2023-03-31T10:58:49.296Z,15.10
2023-03-31T11:02:42.960Z,15.15
2023-03-31T11:06:04.674Z,15.15
2023-03-31T11:09:16.730Z,15.11
2023-03-31T11:12:44.047Z,15.12
2023-03-31T11:16:02.822Z,15.17
2023-03-31T11:19:08.654Z,15.22
2023-03-31T11:22:49.704Z,15.29
2023-03-31T11:26:02.957Z,15.37
2023-03-31T11:29:53.328Z,15.45
2023-03-31T11:32:58.760Z,15.49
2023-03-31T11:36:32.273Z,15.58
2023-03-31T11:39:56.933Z,15.66
2023-03-31T11:43:05.671Z,15.75
2023-03-31T11:46:22.733Z,15.83
2023-03-31T11:49:32.400Z,15.89
2023-03-31T11:52:40.908Z,15.93
2023-03-31T11:55:47.615Z,15.93
2023-03-31T11:58:57.802Z,15.89
2023-03-31T12:02:23.187Z,15.84
2023-03-31T12:05:28.794Z,15.69
2023-03-31T12:08:47.887Z,15.59
2023-03-31T12:11:57.791Z,15.53
2023-03-31T12:15:18.613Z,15.45
2023-03-31T12:18:26.500Z,15.43
2023-03-31T12:21:30.843Z,15.35
2023-03-31T12:24:34.594Z,15.34
2023-03-31T12:27:41.706Z,15.36
2023-03-31T12:30:48.166Z,15.32
2023-03-31T12:34:01.636Z,15.28
2023-03-31T12:37:13.632Z,15.21
2023-03-31T12:41:00.930Z,15.10
2023-03-31T12:44:12.697Z,14.96
2023-03-31T12:47:33.476Z,14.87
2023-03-31T12:51:05.911Z,14.82
2023-03-31T12:54:11.900Z,14.70
2023-03-31T12:57:21.486Z,14.60
2023-03-31T13:00:26.859Z,14.50
2023-03-31T13:03:35.488Z,14.46
2023-03-31T13:06:38.182Z,14.42
2023-03-31T13:09:44.237Z,14.36
2023-03-31T13:13:03.453Z,14.32
2023-03-31T13:16:06.223Z,14.31
2023-03-31T13:19:12.698Z,14.33
2023-03-31T13:22:32.291Z,14.44
2023-03-31T13:25:56.022Z,14.53
2023-03-31T13:29:18.967Z,14.74
2023-03-31T13:32:26.237Z,14.95
2023-03-31T13:35:34.038Z,15.12
2023-03-31T13:38:52.168Z,15.27
2023-03-31T13:41:54.887Z,15.41
2023-03-31T13:45:23.942Z,15.50
2023-03-31T13:48:48.766Z,15.65
2023-03-31T13:51:59.577Z,15.70
2023-03-31T13:55:22.495Z,15.66
2023-03-31T13:58:43.833Z,15.55
2023-03-31T14:02:35.088Z,15.47
2023-03-31T14:05:56.478Z,15.43
2023-03-31T14:09:05.867Z,15.40
2023-03-31T14:12:35.475Z,15.31
2023-03-31T14:15:44.457Z,15.24
2023-03-31T14:18:51.315Z,15.21
2023-03-31T14:22:20.043Z,15.24
2023-03-31T14:25:31.872Z,15.19
2023-03-31T14:28:47.536Z,15.14
2023-03-31T14:32:14.883Z,15.11
2023-03-31T14:35:38.611Z,15.08
2023-03-31T14:38:41.636Z,15.13
2023-03-31T14:41:44.747Z,15.10
2023-03-31T14:44:48.840Z,15.05
2023-03-31T14:48:03.170Z,14.99
2023-03-31T14:51:10.180Z,14.96
2023-03-31T14:54:18.527Z,14.84
2023-03-31T14:57:45.246Z,14.75
2023-03-31T15:00:48.475Z,14.68
2023-03-31T15:03:53.590Z,14.62
2023-03-31T15:06:59.325Z,14.59
2023-03-31T15:10:03.759Z,14.67
2023-03-31T15:13:15.806Z,14.73
2023-03-31T15:16:42.059Z,14.69
2023-03-31T15:19:45.544Z,14.42
2023-03-31T15:22:48.328Z,14.24
2023-03-31T15:26:02.034Z,14.07
2023-03-31T15:29:26.853Z,13.93
2023-03-31T15:32:33.200Z,13.81
2023-03-31T15:35:36.793Z,13.70
2023-03-31T15:38:40.838Z,13.65
2023-03-31T15:41:46.963Z,13.58
2023-03-31T15:44:55.965Z,13.51
2023-03-31T15:48:02.685Z,13.56
2023-03-31T15:51:20.800Z,13.68
2023-03-31T15:54:32.742Z,13.79
2023-03-31T15:57:36.463Z,13.77
2023-03-31T16:00:53.251Z,13.69
2023-03-31T16:03:56.901Z,13.57
2023-03-31T16:07:05.606Z,13.49
2023-03-31T16:10:22.108Z,13.41
2023-03-31T16:13:25.718Z,13.33
2023-03-31T16:16:29.736Z,13.26
2023-03-31T16:19:41.614Z,13.26
2023-03-31T16:22:48.974Z,13.26
2023-03-31T16:25:52.524Z,13.28
2023-03-31T16:28:57.594Z,13.31
2023-03-31T16:32:11.276Z,13.29
2023-03-31T16:35:14.231Z,13.23
2023-03-31T16:38:17.850Z,13.17
2023-03-31T16:41:24.248Z,13.10
2023-03-31T16:44:27.255Z,13.02
2023-03-31T16:47:35.896Z,12.95
2023-03-31T16:50:40.607Z,13.00
2023-03-31T16:53:44.516Z,13.06
2023-03-31T16:56:48.074Z,13.12
2023-03-31T16:59:50.887Z,13.13
2023-03-31T17:02:53.860Z,13.10
2023-03-31T17:05:59.219Z,13.04
2023-03-31T17:09:02.918Z,12.97
2023-03-31T17:12:06.126Z,12.86
2023-03-31T17:15:10.369Z,12.75
2023-03-31T17:18:13.404Z,12.66
2023-03-31T17:21:19.651Z,12.67
2023-03-31T17:24:22.397Z,12.70
2023-03-31T17:27:27.314Z,12.76
2023-03-31T17:30:31.779Z,12.80
2023-03-31T17:33:34.547Z,12.80
2023-03-31T17:36:37.330Z,12.77
2023-03-31T17:39:40.045Z,12.71
2023-03-31T17:42:44.773Z,12.66
2023-03-31T17:45:47.828Z,12.68
2023-03-31T17:48:51.394Z,12.70
2023-03-31T17:51:54.187Z,12.68
2023-03-31T17:54:57.779Z,12.63
2023-03-31T17:58:01.637Z,12.58
2023-03-31T18:01:07.049Z,12.40
2023-03-31T18:04:10.417Z,12.18
2023-03-31T18:07:13.211Z,12.03
2023-03-31T18:10:18.652Z,11.99
2023-03-31T18:13:21.757Z,11.93
2023-03-31T18:16:24.927Z,11.81
2023-03-31T18:19:27.742Z,11.72
2023-03-31T18:22:30.517Z,11.64
2023-03-31T18:25:33.535Z,11.58
2023-03-31T18:28:55.961Z,11.54
2023-03-31T18:31:59.222Z,11.57
2023-03-31T18:35:02.533Z,11.62
2023-03-31T18:38:05.832Z,11.65
2023-03-31T18:41:09.391Z,11.61
2023-03-31T18:44:18.794Z,11.63
2023-03-31T18:47:21.868Z,11.72
2023-03-31T18:50:25.976Z,11.75
2023-03-31T18:53:30.112Z,11.77
2023-03-31T18:56:33.252Z,11.79
2023-03-31T18:59:36.068Z,11.79
2023-03-31T19:02:38.940Z,11.78
2023-03-31T19:05:42.517Z,11.76
2023-03-31T19:08:45.304Z,11.73
2023-03-31T19:11:48.768Z,11.72
2023-03-31T19:14:52.507Z,11.75
2023-03-31T19:17:55.718Z,11.80
2023-03-31T19:20:59.603Z,11.81
2023-03-31T19:24:02.919Z,11.81
2023-03-31T19:27:06.520Z,11.77
2023-03-31T19:30:18.081Z,11.75
2023-03-31T19:33:20.945Z,11.78
2023-03-31T19:36:23.786Z,11.79
2023-03-31T19:39:28.248Z,11.79
2023-03-31T19:42:33.035Z,11.80
2023-03-31T19:45:36.812Z,11.80
2023-03-31T19:48:39.704Z,11.81
2023-03-31T19:51:42.478Z,11.85
2023-03-31T19:54:45.264Z,11.82
2023-03-31T19:57:48.123Z,11.74
2023-03-31T20:00:52.892Z,11.67
2023-03-31T20:03:56.707Z,11.65
2023-03-31T20:06:59.754Z,11.59
2023-03-31T20:10:02.631Z,11.51
2023-03-31T20:13:05.501Z,11.41
2023-03-31T20:16:11.952Z,11.32
2023-03-31T20:19:16.651Z,11.21
2023-03-31T20:22:19.449Z,11.10
2023-03-31T20:25:22.311Z,11.09
2023-03-31T20:28:25.034Z,11.09
2023-03-31T20:31:30.390Z,11.06
2023-03-31T20:34:34.288Z,11.07
2023-03-31T20:37:37.007Z,11.13
2023-03-31T20:40:40.824Z,11.08
2023-03-31T20:43:44.078Z,11.09
2023-03-31T20:46:47.659Z,11.15
2023-03-31T20:49:50.496Z,11.16
2023-03-31T20:52:53.210Z,11.15
2023-03-31T20:55:56.048Z,11.14
2023-03-31T20:58:59.818Z,11.04
2023-03-31T21:02:03.290Z,10.94
2023-03-31T21:05:06.831Z,10.87
2023-03-31T21:08:10.776Z,10.81
2023-03-31T21:11:14.424Z,10.73
2023-03-31T21:14:17.350Z,10.64
2023-03-31T21:17:20.794Z,10.59
2023-03-31T21:20:23.517Z,10.54
2023-03-31T21:23:27.948Z,10.50
2023-03-31T21:26:30.734Z,10.47
2023-03-31T21:29:33.804Z,10.41
2023-03-31T21:32:36.642Z,10.35
2023-03-31T21:35:39.498Z,10.30
2023-03-31T21:38:42.933Z,10.25
2023-03-31T21:41:45.713Z,10.32
2023-03-31T21:44:48.722Z,10.37
2023-03-31T21:47:52.609Z,10.40
2023-03-31T21:50:56.459Z,10.41
2023-03-31T21:53:59.201Z,10.40
2023-03-31T21:57:02.078Z,10.36
2023-03-31T22:00:12.277Z,10.30
2023-03-31T22:03:26.344Z,10.23
2023-03-31T22:06:30.698Z,10.19
2023-03-31T22:09:33.461Z,10.19
2023-03-31T22:12:36.218Z,10.18
2023-03-31T22:15:42.201Z,10.18
2023-03-31T22:18:47.174Z,10.18
2023-03-31T22:21:50.461Z,10.18
2023-03-31T22:24:53.214Z,10.15
2023-03-31T22:27:56.489Z,10.11
2023-03-31T22:30:59.256Z,10.07
2023-03-31T22:34:02.077Z,10.06
2023-03-31T22:37:05.009Z,10.03
2023-03-31T22:40:09.707Z,10.01
2023-03-31T22:43:12.546Z,10.02
2023-03-31T22:46:16.059Z,10.05
2023-03-31T22:49:19.198Z,10.04
2023-03-31T22:52:22.272Z,10.12
2023-03-31T22:55:25.032Z,10.21
2023-03-31T22:58:28.834Z,10.23
2023-03-31T23:01:32.014Z,10.25
2023-03-31T23:04:34.771Z,10.27
2023-03-31T23:07:38.622Z,10.27
2023-03-31T23:10:41.370Z,10.28
2023-03-31T23:13:45.423Z,10.31
2023-03-31T23:16:48.255Z,10.27
2023-03-31T23:19:51.332Z,10.23
2023-03-31T23:22:54.244Z,10.22
2023-03-31T23:26:00.849Z,10.19
2023-03-31T23:29:04.380Z,10.15
2023-03-31T23:32:07.398Z,10.10
2023-03-31T23:35:11.553Z,10.04
2023-03-31T23:38:14.465Z,9.98
2023-03-31T23:41:18.438Z,9.94
2023-03-31T23:44:21.277Z,9.88
2023-03-31T23:47:24.718Z,9.81
2023-03-31T23:50:28.289Z,9.73
2023-03-31T23:53:31.772Z,9.73
2023-03-31T23:56:34.561Z,9.75
2023-03-31T23:59:37.283Z,9.78
